Alden, New York
Current Conditions -  °F | °C
As of 12:54 PM on Wednesday 28 Jan 2015 (Local Time) from KBUF Reporting Station
Few Clouds Few Clouds  
Wind Chill: -11°   Ceiling: Unl
Heat Index: -6°   Visibility: 10mi
Dew Point: -12°   Wind: 8mph
Humidity: 63%   Direction: 230°SW
Pressure: 30.3"   Gusts: NA
Location:  42.9°N, 78.49°W
Report Text: KBUF 281754Z 23007KT 10SM FEW250 M06/M12 A3030 RMK AO2 SLP275 4/004 933010 T10611122 11061 21156 50002
Loading
Personal Weather Stations






























Interactive Weather Map New forecast layout! Learn more

10-Day Weather Forecast

Advertisements
Track Severe Weather on mobile